createdAt,value
2023-09-11T00:01:27.615Z,36.15
2023-09-11T00:03:55.285Z,36.88
2023-09-11T00:06:23.007Z,33.45
2023-09-11T00:08:52.045Z,39.85
2023-09-11T00:11:20.262Z,34.97
2023-09-11T00:13:47.911Z,35.20
2023-09-11T00:16:15.607Z,37.08
2023-09-11T00:18:43.540Z,36.90
2023-09-11T00:21:11.534Z,36.67
2023-09-11T00:23:39.201Z,35.65
2023-09-11T00:26:08.377Z,37.08
2023-09-11T00:28:36.042Z,39.13
2023-09-11T00:31:03.763Z,36.03
2023-09-11T00:33:31.437Z,32.08
2023-09-11T00:35:59.126Z,31.25
2023-09-11T00:38:26.890Z,30.13
2023-09-11T00:40:54.565Z,32.92
2023-09-11T00:43:23.626Z,33.97
2023-09-11T00:45:52.186Z,29.10
2023-09-11T00:48:20.718Z,34.08
2023-09-11T00:50:49.545Z,27.88
2023-09-11T00:53:17.760Z,35.42
2023-09-11T00:55:46.762Z,31.58
2023-09-11T00:58:16.207Z,27.67
2023-09-11T01:00:46.814Z,23.55
2023-09-11T01:03:15.510Z,30.02
2023-09-11T01:05:44.817Z,27.58
2023-09-11T01:08:12.663Z,27.35
2023-09-11T01:10:40.310Z,26.05
2023-09-11T01:13:07.994Z,30.02
2023-09-11T01:15:43.772Z,33.90
2023-09-11T01:18:30.230Z,33.30
2023-09-11T01:21:39.222Z,34.00
2023-09-11T01:24:33.334Z,33.80
2023-09-11T01:27:41.132Z,37.38
2023-09-11T01:30:11.541Z,36.42
2023-09-11T01:32:40.098Z,38.45
2023-09-11T01:35:08.378Z,34.95
2023-09-11T01:37:36.047Z,34.60
2023-09-11T01:40:03.919Z,27.52
2023-09-11T01:42:36.611Z,29.92
2023-09-11T01:45:07.133Z,32.72
2023-09-11T01:47:36.439Z,31.05
2023-09-11T01:50:06.953Z,31.30
2023-09-11T01:52:35.883Z,32.00
2023-09-11T01:55:04.399Z,28.85
2023-09-11T01:57:32.111Z,24.83
2023-09-11T01:59:59.761Z,26.52
2023-09-11T02:02:31.020Z,25.52
2023-09-11T02:05:00.135Z,29.05
2023-09-11T02:07:27.780Z,21.35
2023-09-11T02:09:55.488Z,27.90
2023-09-11T02:12:24.134Z,27.42
2023-09-11T02:14:51.838Z,22.55
2023-09-11T02:17:19.532Z,28.77
2023-09-11T02:19:47.196Z,23.45
2023-09-11T02:22:17.182Z,28.90
2023-09-11T02:24:44.843Z,27.50
2023-09-11T02:27:12.496Z,23.58
2023-09-11T02:29:40.190Z,25.48
2023-09-11T02:32:07.962Z,25.95
2023-09-11T02:34:35.574Z,27.83
2023-09-11T02:37:03.249Z,24.27
2023-09-11T02:39:32.231Z,28.42
2023-09-11T02:42:00.282Z,29.65
2023-09-11T02:44:27.993Z,22.20
2023-09-11T02:46:55.655Z,24.33
2023-09-11T02:49:23.294Z,22.67
2023-09-11T02:51:51.011Z,22.92
2023-09-11T02:54:20.513Z,23.15
2023-09-11T02:56:49.546Z,24.92
2023-09-11T02:59:17.190Z,23.63
2023-09-11T03:01:45.903Z,19.77
2023-09-11T03:04:13.546Z,27.00
2023-09-11T03:06:41.192Z,21.30
2023-09-11T03:09:08.882Z,24.10
2023-09-11T03:11:36.625Z,29.70
2023-09-11T03:14:05.784Z,28.40
2023-09-11T03:16:33.451Z,27.73
2023-09-11T03:19:01.098Z,25.55
2023-09-11T03:21:28.711Z,24.35
2023-09-11T03:23:56.408Z,27.48
2023-09-11T03:26:24.164Z,24.88
2023-09-11T03:28:51.848Z,22.95
2023-09-11T03:31:20.850Z,22.33
2023-09-11T03:33:48.673Z,22.33
2023-09-11T03:36:17.420Z,22.85
2023-09-11T03:38:45.593Z,17.92
2023-09-11T03:41:13.409Z,25.63
2023-09-11T03:43:41.056Z,24.92
2023-09-11T03:46:08.913Z,24.65
2023-09-11T03:48:38.269Z,24.10
2023-09-11T03:51:06.063Z,25.52
2023-09-11T03:53:35.061Z,29.17
2023-09-11T03:56:03.366Z,28.70
2023-09-11T03:58:31.372Z,27.95
2023-09-11T04:00:59.040Z,22.33
2023-09-11T04:03:26.826Z,25.35
2023-09-11T04:05:56.087Z,26.45
2023-09-11T04:08:23.836Z,26.45
2023-09-11T04:10:51.549Z,23.27
2023-09-11T04:13:19.196Z,25.08
2023-09-11T04:15:46.879Z,28.88
2023-09-11T04:18:14.597Z,31.15
2023-09-11T04:20:42.306Z,22.90
2023-09-11T04:23:11.322Z,25.75
2023-09-11T04:25:39.063Z,23.55
2023-09-11T04:28:07.244Z,21.85
2023-09-11T04:30:34.958Z,25.10
2023-09-11T04:33:04.086Z,25.60
2023-09-11T04:35:32.155Z,19.97
2023-09-11T04:37:59.841Z,22.03
2023-09-11T04:40:28.898Z,25.65
2023-09-11T04:42:57.498Z,22.87
2023-09-11T04:45:25.141Z,20.88
2023-09-11T04:47:52.809Z,22.73
2023-09-11T04:50:20.706Z,22.23
2023-09-11T04:52:48.368Z,20.10
2023-09-11T04:55:16.016Z,21.45
2023-09-11T04:57:45.015Z,21.30
2023-09-11T05:00:14.592Z,17.83
2023-09-11T05:02:42.506Z,19.83
2023-09-11T05:05:10.501Z,22.97
2023-09-11T05:07:38.132Z,21.10
2023-09-11T05:10:09.185Z,20.27
2023-09-11T05:12:36.878Z,19.17
2023-09-11T05:15:06.620Z,19.47
2023-09-11T05:17:34.408Z,18.07
2023-09-11T05:20:02.081Z,18.37
2023-09-11T05:22:29.687Z,18.50
2023-09-11T05:24:57.319Z,18.03
2023-09-11T05:27:24.943Z,16.40
2023-09-11T05:29:53.223Z,15.07
2023-09-11T05:32:24.349Z,15.73
2023-09-11T05:34:52.061Z,14.65
2023-09-11T05:37:19.730Z,16.47
2023-09-11T05:39:48.620Z,15.32
2023-09-11T05:42:16.268Z,13.60
2023-09-11T05:44:44.787Z,15.45
2023-09-11T05:47:12.568Z,15.27
2023-09-11T05:49:41.571Z,15.85
2023-09-11T05:52:09.286Z,15.88
2023-09-11T05:54:36.899Z,16.20
2023-09-11T05:57:05.216Z,14.00
2023-09-11T05:59:32.935Z,14.77
2023-09-11T06:02:00.711Z,12.82
2023-09-11T06:04:28.848Z,16.63
2023-09-11T06:06:57.871Z,12.45
2023-09-11T06:09:25.689Z,14.70
2023-09-11T06:11:53.874Z,13.18
2023-09-11T06:14:21.543Z,11.85
2023-09-11T06:16:49.235Z,12.27
2023-09-11T06:19:16.974Z,12.13
2023-09-11T06:21:45.450Z,11.38
2023-09-11T06:24:15.422Z,11.38
2023-09-11T06:26:44.463Z,10.80
2023-09-11T06:29:13.246Z,10.52
2023-09-11T06:31:41.040Z,10.45
2023-09-11T06:34:08.698Z,10.15
2023-09-11T06:36:36.339Z,9.20
2023-09-11T06:39:05.823Z,9.50
2023-09-11T06:41:34.882Z,10.68
2023-09-11T06:44:03.536Z,10.00
2023-09-11T06:46:31.176Z,9.30
2023-09-11T06:48:59.622Z,9.85
2023-09-11T06:51:27.327Z,11.05
2023-09-11T06:53:56.493Z,11.90
2023-09-11T06:56:24.239Z,11.93
2023-09-11T06:58:53.233Z,11.82
2023-09-11T07:01:20.887Z,14.02
2023-09-11T07:03:48.996Z,16.23
2023-09-11T07:06:16.797Z,14.25
2023-09-11T07:08:44.703Z,14.88
2023-09-11T07:11:12.496Z,16.38
2023-09-11T07:13:40.132Z,14.80
2023-09-11T07:16:09.191Z,11.35
2023-09-11T07:18:37.012Z,15.88
2023-09-11T07:21:04.956Z,11.55
2023-09-11T07:23:32.732Z,14.57
2023-09-11T07:26:00.514Z,17.05
2023-09-11T07:28:28.723Z,15.02
2023-09-11T07:30:56.585Z,16.42
2023-09-11T07:33:25.882Z,18.52
2023-09-11T07:35:53.722Z,17.95
2023-09-11T07:38:21.376Z,14.25
2023-09-11T07:40:49.003Z,15.32
2023-09-11T07:43:16.640Z,14.85
2023-09-11T07:45:44.432Z,14.02
2023-09-11T07:48:12.175Z,15.05
2023-09-11T07:50:41.343Z,15.98
2023-09-11T07:53:09.015Z,13.02
2023-09-11T07:55:38.173Z,13.48
2023-09-11T07:58:06.239Z,12.75
2023-09-11T08:00:33.986Z,11.25
2023-09-11T08:03:01.923Z,13.38
2023-09-11T08:05:29.708Z,16.42
2023-09-11T08:08:02.561Z,15.23
2023-09-11T08:10:30.477Z,16.33
2023-09-11T08:12:58.233Z,10.95
2023-09-11T08:15:26.366Z,10.82
2023-09-11T08:17:54.183Z,12.98
2023-09-11T08:20:21.863Z,13.98
2023-09-11T08:22:49.518Z,13.73
2023-09-11T08:25:18.767Z,12.25
2023-09-11T08:27:46.595Z,16.30
2023-09-11T08:30:14.840Z,10.25
2023-09-11T08:32:42.608Z,12.30
2023-09-11T08:35:10.331Z,12.45
2023-09-11T08:37:38.041Z,15.95
2023-09-11T08:40:06.942Z,13.65
2023-09-11T08:42:36.139Z,13.38
2023-09-11T08:45:03.867Z,11.00
2023-09-11T08:47:32.699Z,13.30
2023-09-11T08:50:06.762Z,11.07
2023-09-11T08:52:36.245Z,12.32
2023-09-11T08:55:09.459Z,17.27
2023-09-11T08:57:41.315Z,18.58
2023-09-11T09:00:13.624Z,14.52
2023-09-11T09:02:41.892Z,14.73
2023-09-11T09:05:10.441Z,13.23
2023-09-11T09:07:40.174Z,13.15
2023-09-11T09:10:09.551Z,13.43
2023-09-11T09:12:39.212Z,14.55
2023-09-11T09:15:08.707Z,18.83
2023-09-11T09:17:36.451Z,12.70
2023-09-11T09:20:05.422Z,15.45
2023-09-11T09:22:33.088Z,13.75
2023-09-11T09:25:00.798Z,14.65
2023-09-11T09:27:29.519Z,12.77
2023-09-11T09:29:58.694Z,12.35
2023-09-11T09:32:26.977Z,16.85
2023-09-11T09:34:56.289Z,16.42
2023-09-11T09:37:24.029Z,14.52
2023-09-11T09:39:52.015Z,19.67
2023-09-11T09:42:20.129Z,12.98
2023-09-11T09:44:53.706Z,13.52
2023-09-11T09:47:24.215Z,15.68
2023-09-11T09:49:53.724Z,14.50
2023-09-11T09:52:22.740Z,21.33
2023-09-11T09:54:51.953Z,15.70
2023-09-11T09:57:21.294Z,15.45
2023-09-11T09:59:51.145Z,15.85
2023-09-11T10:02:27.587Z,13.02
2023-09-11T10:04:57.962Z,14.80
2023-09-11T10:07:44.114Z,12.63
2023-09-11T10:10:22.968Z,13.45
2023-09-11T10:12:55.295Z,12.20
2023-09-11T10:15:23.823Z,16.52
2023-09-11T10:17:56.708Z,14.07
2023-09-11T10:20:25.126Z,13.40
2023-09-11T10:22:55.273Z,14.82
2023-09-11T10:25:23.936Z,12.40
2023-09-11T10:27:54.910Z,10.93
2023-09-11T10:30:26.699Z,19.63
2023-09-11T10:33:00.558Z,14.27
2023-09-11T10:35:31.478Z,15.07
2023-09-11T10:38:00.531Z,16.00
2023-09-11T10:40:31.377Z,11.73
2023-09-11T10:42:59.270Z,13.35
2023-09-11T10:45:27.762Z,12.07
2023-09-11T10:47:57.017Z,13.90
2023-09-11T10:50:31.800Z,17.00
2023-09-11T10:52:59.755Z,17.10
2023-09-11T10:55:27.629Z,19.05
2023-09-11T10:57:58.815Z,8.48
2023-09-11T11:00:27.661Z,8.95
2023-09-11T11:02:57.902Z,11.50
2023-09-11T11:05:28.098Z,15.30
2023-09-11T11:07:55.807Z,13.90
2023-09-11T11:10:23.671Z,15.68
2023-09-11T11:13:06.108Z,14.13
2023-09-11T11:15:33.948Z,15.80
2023-09-11T11:18:11.304Z,14.40
2023-09-11T11:20:50.226Z,13.10
2023-09-11T11:23:17.927Z,13.32
2023-09-11T11:25:49.319Z,13.25
2023-09-11T11:28:18.156Z,11.52
2023-09-11T11:30:46.570Z,11.27
2023-09-11T11:33:17.450Z,15.40
2023-09-11T11:35:48.487Z,13.55
2023-09-11T11:38:17.910Z,12.70
2023-09-11T11:40:46.443Z,14.80
2023-09-11T11:43:15.561Z,12.88
2023-09-11T11:45:45.887Z,14.35
2023-09-11T11:48:13.631Z,10.55
2023-09-11T11:50:44.709Z,10.60
2023-09-11T11:53:16.632Z,13.30
2023-09-11T11:55:45.312Z,16.17
2023-09-11T11:58:14.138Z,13.65
2023-09-11T12:00:42.056Z,12.32
2023-09-11T12:03:10.467Z,12.35
2023-09-11T12:05:38.767Z,12.02
2023-09-11T12:08:12.980Z,9.82
2023-09-11T12:10:45.444Z,12.05
2023-09-11T12:13:14.147Z,19.42
2023-09-11T12:15:41.842Z,11.10
2023-09-11T12:18:09.976Z,15.20
2023-09-11T12:20:37.934Z,19.05
2023-09-11T12:23:06.917Z,15.52
2023-09-11T12:25:34.695Z,10.73
2023-09-11T12:28:02.436Z,13.63
2023-09-11T12:30:30.143Z,10.13
2023-09-11T12:32:59.711Z,13.68
2023-09-11T12:35:33.466Z,13.13
2023-09-11T12:38:01.200Z,12.45
2023-09-11T12:40:30.431Z,12.00
2023-09-11T12:42:58.119Z,10.40
2023-09-11T12:45:25.892Z,16.92
2023-09-11T12:47:53.702Z,11.45
2023-09-11T12:50:22.191Z,10.75
2023-09-11T12:52:50.502Z,16.27
2023-09-11T12:55:18.203Z,14.65
2023-09-11T12:57:47.202Z,12.15
2023-09-11T13:00:15.662Z,12.45
2023-09-11T13:02:44.370Z,13.70
2023-09-11T13:05:12.367Z,15.73
2023-09-11T13:07:40.217Z,13.27
2023-09-11T13:10:09.022Z,12.15
2023-09-11T13:12:36.699Z,14.63
2023-09-11T13:15:07.232Z,13.35
2023-09-11T13:17:35.070Z,17.42
2023-09-11T13:20:04.066Z,11.55
2023-09-11T13:22:32.254Z,12.35
2023-09-11T13:24:59.954Z,12.52
2023-09-11T13:27:28.027Z,17.23
2023-09-11T13:29:55.744Z,12.68
2023-09-11T13:32:24.858Z,14.80
2023-09-11T13:34:52.554Z,14.77
2023-09-11T13:37:20.233Z,12.40
2023-09-11T13:39:47.894Z,17.90
2023-09-11T13:42:15.580Z,12.18
2023-09-11T13:44:43.260Z,15.98
2023-09-11T13:47:10.938Z,15.23
2023-09-11T13:49:39.916Z,15.02
2023-09-11T13:52:08.337Z,15.15
2023-09-11T13:54:35.984Z,14.38
2023-09-11T13:57:03.668Z,12.38
2023-09-11T13:59:31.377Z,16.20
2023-09-11T14:01:59.065Z,11.55
2023-09-11T14:04:26.832Z,12.10
2023-09-11T14:06:55.940Z,15.90
2023-09-11T14:09:23.684Z,15.57
2023-09-11T14:11:51.425Z,17.55
2023-09-11T14:14:19.117Z,14.95
2023-09-11T14:16:46.777Z,37.90
2023-09-11T14:19:14.447Z,13.35
2023-09-11T14:21:42.128Z,13.68
2023-09-11T14:24:11.219Z,15.00
2023-09-11T14:26:38.906Z,17.30
2023-09-11T14:29:06.700Z,14.05
2023-09-11T14:31:34.464Z,14.60
2023-09-11T14:34:02.161Z,14.48
2023-09-11T14:36:29.790Z,14.15
2023-09-11T14:38:59.141Z,16.00
2023-09-11T14:41:28.371Z,13.00
2023-09-11T14:43:56.015Z,8.25
2023-09-11T14:46:23.704Z,13.63
2023-09-11T14:48:56.938Z,14.50
2023-09-11T14:51:25.030Z,17.10
2023-09-11T14:53:53.021Z,14.07
2023-09-11T14:56:20.705Z,18.40
2023-09-11T14:58:49.678Z,14.68
2023-09-11T15:01:17.413Z,13.75
2023-09-11T15:03:45.385Z,13.45
2023-09-11T15:06:13.308Z,12.45
2023-09-11T15:08:41.133Z,18.70
2023-09-11T15:11:09.318Z,16.77
2023-09-11T15:13:36.982Z,12.68
2023-09-11T15:16:06.261Z,14.82
2023-09-11T15:18:34.105Z,14.75
2023-09-11T15:21:01.900Z,19.60
2023-09-11T15:23:29.735Z,17.73
2023-09-11T15:25:57.380Z,17.88
2023-09-11T15:28:25.100Z,16.10
2023-09-11T15:30:53.399Z,13.95
2023-09-11T15:33:23.271Z,15.85
2023-09-11T15:36:02.570Z,14.75
2023-09-11T15:38:30.530Z,18.70
2023-09-11T15:41:03.972Z,16.35
2023-09-11T15:43:33.403Z,17.98
2023-09-11T15:46:01.540Z,13.10
2023-09-11T15:48:31.555Z,16.85
2023-09-11T15:50:59.565Z,15.48
2023-09-11T15:53:27.759Z,16.58
2023-09-11T15:55:55.869Z,14.30
2023-09-11T15:58:24.566Z,22.83
2023-09-11T16:00:52.934Z,16.45
2023-09-11T16:03:21.185Z,14.20
2023-09-11T16:05:50.759Z,17.73
2023-09-11T16:08:18.932Z,17.08
2023-09-11T16:10:47.352Z,16.58
2023-09-11T16:13:15.155Z,13.55
2023-09-11T16:15:43.236Z,17.25
2023-09-11T16:18:11.229Z,15.15
2023-09-11T16:20:39.161Z,14.25
2023-09-11T16:23:09.065Z,14.15
2023-09-11T16:25:39.632Z,10.85
2023-09-11T16:28:08.499Z,15.25
2023-09-11T16:30:36.316Z,21.67
2023-09-11T16:33:04.881Z,17.98
2023-09-11T16:35:33.096Z,13.45
2023-09-11T16:38:01.308Z,11.05
2023-09-11T16:40:30.410Z,8.90
2023-09-11T16:42:58.042Z,12.32
2023-09-11T16:45:25.717Z,15.20
2023-09-11T16:47:54.020Z,18.95
2023-09-11T16:50:21.716Z,13.80
2023-09-11T16:52:50.375Z,15.52
2023-09-11T16:55:18.023Z,16.33
2023-09-11T16:57:47.033Z,13.48
2023-09-11T17:00:16.248Z,17.42
2023-09-11T17:02:44.460Z,17.25
2023-09-11T17:05:12.279Z,13.95
2023-09-11T17:07:39.951Z,18.85
2023-09-11T17:10:08.602Z,13.52
2023-09-11T17:12:40.653Z,15.35
2023-09-11T17:15:11.148Z,18.38
2023-09-11T17:17:39.264Z,15.43
2023-09-11T17:20:07.723Z,18.80
2023-09-11T17:22:35.398Z,18.10
2023-09-11T17:25:03.751Z,16.65
2023-09-11T17:27:31.447Z,22.83
2023-09-11T17:29:59.114Z,20.17
2023-09-11T17:32:28.164Z,17.80
2023-09-11T17:34:55.803Z,13.63
2023-09-11T17:37:23.414Z,15.57
2023-09-11T17:39:52.760Z,18.27
2023-09-11T17:42:20.900Z,19.40
2023-09-11T17:44:48.615Z,13.27
2023-09-11T17:47:16.251Z,17.13
2023-09-11T17:49:45.407Z,16.80
2023-09-11T17:52:13.202Z,17.95
2023-09-11T17:54:40.888Z,16.38
2023-09-11T17:57:08.575Z,21.20
2023-09-11T17:59:36.483Z,21.38
2023-09-11T18:02:04.824Z,17.65
2023-09-11T18:04:33.847Z,15.30
2023-09-11T18:07:03.250Z,18.17
2023-09-11T18:09:30.897Z,18.95
2023-09-11T18:11:58.560Z,20.70
2023-09-11T18:14:26.299Z,15.55
2023-09-11T18:16:53.958Z,16.50
2023-09-11T18:19:21.590Z,16.27
2023-09-11T18:21:49.246Z,14.05
2023-09-11T18:24:18.294Z,11.90
2023-09-11T18:26:45.953Z,14.98
2023-09-11T18:29:14.874Z,17.50
2023-09-11T18:31:42.945Z,17.95
2023-09-11T18:34:11.592Z,23.05
2023-09-11T18:36:40.586Z,18.88
2023-09-11T18:39:08.270Z,22.50
2023-09-11T18:41:37.337Z,18.70
2023-09-11T18:44:05.625Z,20.45
2023-09-11T18:46:33.449Z,13.93
2023-09-11T18:49:01.916Z,24.25
2023-09-11T18:51:29.869Z,16.95
2023-09-11T18:53:59.726Z,15.45
2023-09-11T18:56:27.435Z,18.63
2023-09-11T18:58:56.408Z,16.00
2023-09-11T19:01:24.306Z,19.98
2023-09-11T19:03:52.920Z,21.83
2023-09-11T19:06:20.924Z,17.63
2023-09-11T19:08:48.642Z,18.05
2023-09-11T19:11:16.388Z,18.88
2023-09-11T19:13:44.045Z,14.57
2023-09-11T19:16:13.198Z,17.08
2023-09-11T19:18:41.092Z,18.77
2023-09-11T19:21:09.438Z,11.43
2023-09-11T19:23:37.404Z,22.08
2023-09-11T19:26:06.982Z,22.05
2023-09-11T19:28:35.073Z,22.55
2023-09-11T19:31:03.816Z,16.75
2023-09-11T19:33:33.966Z,13.95
2023-09-11T19:36:01.886Z,14.38
2023-09-11T19:38:29.583Z,14.00
2023-09-11T19:40:57.258Z,9.13
2023-09-11T19:43:24.932Z,15.65
2023-09-11T19:45:52.639Z,16.15
2023-09-11T19:48:21.390Z,11.82
2023-09-11T19:50:50.497Z,14.07
2023-09-11T19:53:18.118Z,16.52
2023-09-11T19:55:45.825Z,11.02
2023-09-11T19:58:13.483Z,11.73
2023-09-11T20:00:41.281Z,13.63
2023-09-11T20:03:09.053Z,14.77
2023-09-11T20:05:36.823Z,12.80
2023-09-11T20:08:06.253Z,13.35
2023-09-11T20:10:33.928Z,14.15
2023-09-11T20:13:01.561Z,17.48
2023-09-11T20:15:29.386Z,10.30
2023-09-11T20:17:57.104Z,11.75
2023-09-11T20:20:24.812Z,11.23
2023-09-11T20:22:52.501Z,12.75
2023-09-11T20:25:21.505Z,12.38
2023-09-11T20:27:49.192Z,9.50
2023-09-11T20:30:18.464Z,12.63
2023-09-11T20:32:46.242Z,10.57
2023-09-11T20:35:13.984Z,9.48
2023-09-11T20:37:41.680Z,13.25
2023-09-11T20:40:12.185Z,12.38
2023-09-11T20:42:42.423Z,11.95
2023-09-11T20:45:10.991Z,15.38
2023-09-11T20:47:38.725Z,9.52
2023-09-11T20:50:08.315Z,9.55
2023-09-11T20:52:36.401Z,8.45
2023-09-11T20:55:05.777Z,10.93
2023-09-11T20:57:34.019Z,14.60
2023-09-11T21:00:03.460Z,10.15
2023-09-11T21:02:33.312Z,9.55
2023-09-11T21:05:01.096Z,13.45
2023-09-11T21:07:28.783Z,9.30
2023-09-11T21:09:56.430Z,13.60
2023-09-11T21:12:27.041Z,9.85
2023-09-11T21:14:54.791Z,14.07
2023-09-11T21:17:23.870Z,11.02
2023-09-11T21:19:51.492Z,9.07
2023-09-11T21:22:19.157Z,11.63
2023-09-11T21:24:46.774Z,10.75
2023-09-11T21:27:14.470Z,11.30
2023-09-11T21:29:42.123Z,17.98
2023-09-11T21:32:09.739Z,15.88
2023-09-11T21:34:38.780Z,13.65
2023-09-11T21:37:06.447Z,13.50
2023-09-11T21:39:34.206Z,10.57
2023-09-11T21:42:02.977Z,11.02
2023-09-11T21:44:30.752Z,11.63
2023-09-11T21:46:58.453Z,11.27
2023-09-11T21:49:26.125Z,10.90
2023-09-11T21:51:55.093Z,13.10
2023-09-11T21:54:24.711Z,10.35
2023-09-11T21:56:54.090Z,12.25
2023-09-11T21:59:22.043Z,14.05
2023-09-11T22:01:49.703Z,11.02
2023-09-11T22:04:17.386Z,11.70
2023-09-11T22:06:45.088Z,9.65
2023-09-11T22:09:14.132Z,12.68
2023-09-11T22:11:42.654Z,9.45
2023-09-11T22:14:10.316Z,13.77
2023-09-11T22:16:38.006Z,13.57
2023-09-11T22:19:05.929Z,18.35
2023-09-11T22:21:33.658Z,13.63
2023-09-11T22:24:01.361Z,19.08
2023-09-11T22:26:30.370Z,17.10
2023-09-11T22:28:58.046Z,17.88
2023-09-11T22:31:25.765Z,22.38
2023-09-11T22:33:53.590Z,31.92
2023-09-11T22:36:21.422Z,31.17
2023-09-11T22:38:49.114Z,37.40
2023-09-11T22:41:16.770Z,38.38
2023-09-11T22:43:45.761Z,38.67
2023-09-11T22:46:13.437Z,43.67
2023-09-11T22:48:41.368Z,33.63
2023-09-11T22:51:09.290Z,33.08
2023-09-11T22:53:36.967Z,39.17
2023-09-11T22:56:05.036Z,40.22
2023-09-11T22:58:32.786Z,35.42
2023-09-11T23:01:07.349Z,38.88
2023-09-11T23:03:44.977Z,31.75
2023-09-11T23:06:14.477Z,41.45
2023-09-11T23:08:42.884Z,45.95
2023-09-11T23:11:10.819Z,46.00
2023-09-11T23:13:38.501Z,33.90
2023-09-11T23:16:07.665Z,37.58
2023-09-11T23:18:35.405Z,38.70
2023-09-11T23:21:03.143Z,41.47
2023-09-11T23:23:37.931Z,42.67
2023-09-11T23:26:07.989Z,34.67
2023-09-11T23:28:35.790Z,43.35
2023-09-11T23:31:04.337Z,31.15
2023-09-11T23:33:34.068Z,35.50
2023-09-11T23:36:01.843Z,36.10
2023-09-11T23:38:29.559Z,34.78
2023-09-11T23:40:57.202Z,36.92
2023-09-11T23:43:33.094Z,30.73
2023-09-11T23:46:01.344Z,33.15
2023-09-11T23:48:29.134Z,27.13
2023-09-11T23:50:58.622Z,41.58
2023-09-11T23:53:26.311Z,40.03
2023-09-11T23:55:54.069Z,33.08
2023-09-11T23:58:21.758Z,42.45
